Airfield :
LOGIN :

Register | Disclaimer

   EN    FR    IT 

 










Legend :    VFR   Marginal VFR   IFR   Intensive IFR   Very Intensive IFR
Visi :
Ceiling :
>= 8 km
>= 3000ft
5 to 8 km
1000 to 3000 ft
1500m to 5 km
500 to 1000 ft
800 to 1500m
200 to 500 ft
< 800m
< 200 ft
Symbols :   Thunderstorms  Fog  Heavy snow  Heavy precipitations  Wind > 20 kt
SIGMETs :     Misc.  Thunderstorms  Icing  Turbulence  Mountain Waves  Volcanic Ashes






- Airport Elevation : 36 ft
- IATA code : LTQ


LFAT - Le Touquet

CURRENT METAR :
  • 190600Z AUTO 05007KT 020V100 9999 FEW013 15/12 Q1017 TEMPO 3000 BR BKN004

EXPIRED METARs :
  • 190530Z AUTO 03008KT 010V070 CAVOK 14/12 Q1017 TEMPO 3000 BR BKN004
  • 190500Z AUTO 03008KT 360V060 CAVOK 14/12 Q1016
  • 190430Z AUTO 04008KT 350V060 CAVOK 13/12 Q1016
  • 190400Z AUTO 04009KT CAVOK 13/12 Q1016
  • 190330Z AUTO 03008KT 8000 NSC 13/12 Q1016
  • 190300Z AUTO 04008KT 360V060 8000 NSC 13/12 Q1016
  • 190230Z AUTO 03011KT 8000 NSC 13/13 Q1016
  • 190200Z AUTO 03009KT CAVOK 14/12 Q1016
  • 190130Z AUTO 03006KT 9000 NSC 14/13 Q1016

TAF TAF LFAT
Valid from the 19 at 06:00 until the 19 at 15:00 UTC


190500Z 1906/1915 04010KT CAVOK
PROB40
TEMPO 1906/1908 3000 BR BKN004
ATIS : +33 3 21 06 62 84



MET'MAP, your aeronautical weather chart ! - Copyright ORBIFLY December 2007 - Disclaimer

ORBIFLY MET'MAP TEAM :

Programming & Development : Alexandra Zaïnal
Original concept : Baudouin d'Aumeries
Technical & hardware support : Manuel Goepfert
Assistance : Marc-Olivier Méhu




SOURCES & CREDITS :

   NOAA